createdAt,value
2022-12-22T00:01:49.818Z,32.83
2022-12-22T00:04:33.077Z,40.72
2022-12-22T00:07:15.700Z,34.95
2022-12-22T00:09:58.341Z,37.85
2022-12-22T00:12:42.934Z,33.53
2022-12-22T00:15:32.760Z,34.30
2022-12-22T00:18:15.823Z,26.65
2022-12-22T00:20:58.542Z,39.80
2022-12-22T00:23:41.165Z,40.42
2022-12-22T00:26:24.169Z,29.88
2022-12-22T00:29:06.968Z,41.10
2022-12-22T00:31:52.278Z,32.10
2022-12-22T00:34:37.110Z,38.75
2022-12-22T00:37:19.946Z,35.03
2022-12-22T00:40:02.520Z,33.83
2022-12-22T00:42:45.499Z,34.65
2022-12-22T00:45:28.363Z,36.03
2022-12-22T00:48:15.326Z,33.53
2022-12-22T00:50:58.096Z,43.83
2022-12-22T00:53:41.163Z,32.75
2022-12-22T00:56:24.573Z,37.22
2022-12-22T00:59:10.712Z,32.25
2022-12-22T01:01:53.439Z,32.22
2022-12-22T01:04:38.917Z,31.58
2022-12-22T01:07:21.651Z,39.97
2022-12-22T01:10:07.837Z,22.60
2022-12-22T01:12:52.836Z,34.38
2022-12-22T01:15:36.540Z,36.58
2022-12-22T01:18:20.273Z,28.65
2022-12-22T01:21:06.663Z,34.28
2022-12-22T01:23:49.365Z,36.67
2022-12-22T01:26:32.138Z,44.08
2022-12-22T01:29:14.827Z,37.53
2022-12-22T01:31:57.604Z,42.40
2022-12-22T01:34:40.223Z,45.35
2022-12-22T01:37:25.499Z,46.13
2022-12-22T01:40:08.198Z,41.40
2022-12-22T01:42:51.268Z,45.80
2022-12-22T01:45:38.804Z,43.17
2022-12-22T01:51:04.912Z,39.63
2022-12-22T01:53:50.659Z,52.80
2022-12-22T01:56:33.350Z,45.97
2022-12-22T01:59:19.348Z,56.10
2022-12-22T02:02:02.121Z,37.08
2022-12-22T02:04:50.589Z,48.80
2022-12-22T02:07:46.780Z,46.53
2022-12-22T02:10:45.226Z,35.75
2022-12-22T02:13:39.494Z,51.13
2022-12-22T02:16:29.104Z,40.10
2022-12-22T02:19:17.951Z,46.78
2022-12-22T02:22:08.964Z,51.75
2022-12-22T02:24:56.468Z,48.85
2022-12-22T02:30:26.091Z,50.47
2022-12-22T02:33:10.127Z,43.22
2022-12-22T02:36:00.984Z,57.25
2022-12-22T02:38:53.150Z,49.05
2022-12-22T02:41:45.843Z,49.38
2022-12-22T02:44:41.658Z,48.85
2022-12-22T02:47:33.204Z,54.95
2022-12-22T02:50:24.249Z,48.45
2022-12-22T02:53:08.330Z,48.90
2022-12-22T02:55:51.011Z,59.78
2022-12-22T02:58:34.957Z,49.78
2022-12-22T03:01:21.758Z,59.03
2022-12-22T03:04:04.937Z,51.58
2022-12-22T03:06:47.673Z,53.80
2022-12-22T03:09:30.349Z,44.50
2022-12-22T03:12:13.009Z,61.38
2022-12-22T03:14:55.635Z,51.70
2022-12-22T03:17:40.877Z,46.13
2022-12-22T03:20:24.624Z,41.83
2022-12-22T03:23:07.293Z,56.15
2022-12-22T03:25:49.947Z,61.95
2022-12-22T03:28:20.187Z,46.78
2022-12-22T03:30:57.205Z,53.28
2022-12-22T03:33:30.759Z,57.90
2022-12-22T03:36:02.344Z,50.60
2022-12-22T03:38:32.825Z,52.15
2022-12-22T03:41:03.137Z,60.78
2022-12-22T03:43:45.846Z,67.22
2022-12-22T03:46:33.638Z,55.65
2022-12-22T03:49:13.713Z,60.75
2022-12-22T03:51:46.598Z,56.53
2022-12-22T03:54:19.098Z,58.67
2022-12-22T03:56:50.477Z,52.53
2022-12-22T03:59:21.184Z,54.88
2022-12-22T04:01:53.568Z,62.20
2022-12-22T04:04:29.348Z,61.00
2022-12-22T04:06:59.681Z,60.75
2022-12-22T04:09:30.059Z,52.17
2022-12-22T04:12:12.665Z,53.80
2022-12-22T04:14:43.033Z,54.25
2022-12-22T04:17:13.329Z,53.25
2022-12-22T04:19:46.616Z,60.60
2022-12-22T04:22:16.791Z,56.88
2022-12-22T04:24:46.976Z,53.22
2022-12-22T04:27:17.747Z,54.35
2022-12-22T04:29:48.161Z,52.83
2022-12-22T04:32:18.527Z,50.97
2022-12-22T04:34:51.477Z,56.20
2022-12-22T04:37:21.705Z,60.35
2022-12-22T04:39:51.906Z,57.80
2022-12-22T04:42:22.069Z,66.43
2022-12-22T04:44:53.033Z,60.83
2022-12-22T04:47:23.273Z,64.95
2022-12-22T04:49:56.626Z,56.20
2022-12-22T04:52:30.130Z,55.38
2022-12-22T04:55:00.373Z,64.07
2022-12-22T04:57:33.216Z,55.65
2022-12-22T05:00:05.818Z,62.10
2022-12-22T05:02:36.247Z,65.65
2022-12-22T05:05:10.351Z,58.03
2022-12-22T05:07:40.683Z,59.30
2022-12-22T05:10:12.871Z,58.63
2022-12-22T05:12:58.474Z,65.75
2022-12-22T05:15:30.630Z,59.10
2022-12-22T05:18:01.985Z,64.65
2022-12-22T05:20:34.929Z,66.38
2022-12-22T05:23:05.211Z,67.00
2022-12-22T05:25:35.831Z,63.90
2022-12-22T05:28:06.412Z,62.88
2022-12-22T05:30:36.773Z,66.47
2022-12-22T05:33:07.070Z,60.90
2022-12-22T05:35:39.942Z,64.50
2022-12-22T05:38:10.200Z,62.38
2022-12-22T05:40:40.541Z,52.90
2022-12-22T05:43:10.784Z,59.78
2022-12-22T05:45:41.225Z,56.50
2022-12-22T05:48:11.520Z,66.18
2022-12-22T05:50:44.407Z,57.90
2022-12-22T05:53:14.634Z,68.40
2022-12-22T05:55:44.979Z,51.22
2022-12-22T05:58:15.276Z,58.97
2022-12-22T06:00:45.601Z,63.05
2022-12-22T06:03:15.891Z,69.47
2022-12-22T06:05:48.762Z,60.42
2022-12-22T06:08:19.281Z,64.55
2022-12-22T06:10:49.565Z,61.92
2022-12-22T06:13:20.685Z,59.63
2022-12-22T06:15:51.764Z,67.55
2022-12-22T06:18:22.069Z,62.13
2022-12-22T06:20:56.979Z,70.57
2022-12-22T06:23:27.237Z,53.15
2022-12-22T06:25:58.881Z,59.33
2022-12-22T06:28:29.812Z,61.90
2022-12-22T06:31:00.345Z,69.13
2022-12-22T06:33:30.599Z,62.10
2022-12-22T06:36:07.861Z,55.88
2022-12-22T06:38:38.565Z,60.28
2022-12-22T06:41:09.064Z,57.00
2022-12-22T06:43:36.676Z,63.83
2022-12-22T06:46:07.045Z,53.00
2022-12-22T06:48:37.307Z,47.45
2022-12-22T06:51:10.158Z,59.28
2022-12-22T06:53:40.422Z,66.05
2022-12-22T06:56:11.365Z,55.20
2022-12-22T06:58:41.670Z,56.22
2022-12-22T07:01:11.905Z,60.17
2022-12-22T07:03:42.213Z,57.08
2022-12-22T07:06:15.130Z,54.17
2022-12-22T07:08:45.651Z,51.38
2022-12-22T07:11:15.956Z,66.30
2022-12-22T07:13:47.103Z,54.58
2022-12-22T07:16:18.645Z,60.13
2022-12-22T07:18:49.436Z,52.53
2022-12-22T07:21:22.330Z,52.42
2022-12-22T07:23:52.706Z,50.75
2022-12-22T07:26:22.916Z,45.92
2022-12-22T07:28:53.160Z,47.72
2022-12-22T07:31:23.435Z,51.63
2022-12-22T07:33:54.237Z,69.95
2022-12-22T07:36:27.083Z,64.32
2022-12-22T07:38:57.495Z,52.30
2022-12-22T07:41:40.207Z,50.80
2022-12-22T07:44:10.620Z,53.35
2022-12-22T07:46:42.847Z,55.50
2022-12-22T07:49:26.410Z,54.10
2022-12-22T07:52:00.160Z,56.50
2022-12-22T07:54:35.244Z,50.08
2022-12-22T07:57:08.469Z,55.10
2022-12-22T07:59:38.742Z,55.13
2022-12-22T08:02:09.358Z,62.28
2022-12-22T08:04:39.643Z,55.10
2022-12-22T08:07:12.879Z,39.65
2022-12-22T08:09:43.349Z,58.53
2022-12-22T08:12:13.948Z,54.10
2022-12-22T08:14:46.012Z,69.18
2022-12-22T08:17:16.211Z,62.30
2022-12-22T08:19:46.587Z,54.83
2022-12-22T08:22:19.696Z,50.75
2022-12-22T08:24:49.939Z,60.97
2022-12-22T08:27:27.592Z,63.35
2022-12-22T08:30:00.944Z,60.92
2022-12-22T08:32:31.646Z,47.53
2022-12-22T08:35:02.040Z,62.55
2022-12-22T08:37:41.340Z,66.65
2022-12-22T08:40:15.697Z,58.05
2022-12-22T08:42:46.487Z,61.03
2022-12-22T08:45:16.887Z,60.55
2022-12-22T08:47:47.139Z,65.75
2022-12-22T08:50:17.520Z,72.28
2022-12-22T08:52:50.489Z,64.43
2022-12-22T08:55:21.041Z,62.70
2022-12-22T08:57:56.232Z,67.57
2022-12-22T09:00:27.427Z,49.20
2022-12-22T09:02:57.782Z,58.38
2022-12-22T09:05:28.189Z,47.47
2022-12-22T09:08:02.965Z,59.20
2022-12-22T09:10:33.454Z,47.63
2022-12-22T09:13:03.757Z,71.60
2022-12-22T09:15:34.072Z,60.20
2022-12-22T09:18:04.431Z,49.40
2022-12-22T09:20:34.933Z,61.00
2022-12-22T09:23:07.844Z,63.03
2022-12-22T09:25:38.220Z,58.50
2022-12-22T09:28:10.657Z,52.20
2022-12-22T09:30:40.976Z,55.75
2022-12-22T09:33:11.751Z,61.20
2022-12-22T09:35:44.333Z,68.72
2022-12-22T09:38:17.240Z,67.05
2022-12-22T09:40:47.535Z,47.50
2022-12-22T09:43:20.111Z,48.25
2022-12-22T09:45:50.751Z,55.67
2022-12-22T09:48:21.886Z,58.97
2022-12-22T09:50:52.165Z,55.75
2022-12-22T09:53:26.713Z,52.80
2022-12-22T09:55:57.067Z,51.25
2022-12-22T09:58:30.498Z,45.42
2022-12-22T10:01:12.985Z,47.72
2022-12-22T10:03:48.703Z,55.92
2022-12-22T10:06:24.078Z,48.08
2022-12-22T10:08:57.597Z,60.83
2022-12-22T10:11:29.054Z,50.72
2022-12-22T10:13:59.338Z,65.40
2022-12-22T10:16:32.278Z,62.10
2022-12-22T10:19:11.784Z,58.33
2022-12-22T10:21:46.873Z,58.28
2022-12-22T10:24:28.992Z,49.13
2022-12-22T10:27:01.365Z,51.50
2022-12-22T10:29:32.577Z,53.20
2022-12-22T10:32:05.591Z,57.75
2022-12-22T10:34:36.155Z,59.08
2022-12-22T10:37:08.687Z,55.55
2022-12-22T10:39:41.861Z,51.22
2022-12-22T10:42:15.476Z,59.78
2022-12-22T10:44:49.307Z,51.13
2022-12-22T10:47:24.144Z,66.95
2022-12-22T10:52:32.153Z,56.53
2022-12-22T10:55:20.941Z,61.42
2022-12-22T10:57:51.717Z,44.42
2022-12-22T11:00:28.630Z,60.15
2022-12-22T11:05:30.151Z,58.38
2022-12-22T11:08:03.873Z,65.43
2022-12-22T11:10:41.503Z,62.75
2022-12-22T11:13:35.761Z,68.63
2022-12-22T11:16:11.148Z,63.72
2022-12-22T11:19:06.868Z,59.75
2022-12-22T11:21:47.619Z,72.90
2022-12-22T11:24:33.048Z,64.20
2022-12-22T11:27:19.524Z,50.85
2022-12-22T11:30:12.247Z,53.88
2022-12-22T11:33:00.578Z,53.72
2022-12-22T11:35:44.502Z,54.65
2022-12-22T11:38:23.571Z,56.78
2022-12-22T11:41:01.372Z,61.47
2022-12-22T11:43:45.879Z,59.90
2022-12-22T11:46:28.571Z,53.70
2022-12-22T11:49:15.284Z,51.78
2022-12-22T11:52:02.508Z,44.27
2022-12-22T11:54:51.835Z,40.50
2022-12-22T11:57:34.866Z,46.67
2022-12-22T12:00:14.073Z,37.08
2022-12-22T12:03:25.852Z,30.65
2022-12-22T12:06:13.271Z,32.00
2022-12-22T12:08:55.910Z,26.90
2022-12-22T12:11:34.195Z,24.33
2022-12-22T12:14:16.869Z,27.73
2022-12-22T12:16:55.474Z,27.02
2022-12-22T12:19:48.708Z,24.20
2022-12-22T12:22:33.219Z,21.15
2022-12-22T12:25:07.097Z,24.58
2022-12-22T12:27:56.212Z,17.42
2022-12-22T12:30:42.948Z,17.90
2022-12-22T12:33:20.087Z,11.57
2022-12-22T12:35:56.700Z,13.07
2022-12-22T12:43:59.325Z,12.75
2022-12-22T12:46:49.343Z,10.52
2022-12-22T12:49:57.801Z,8.02
2022-12-22T12:52:58.111Z,8.15
2022-12-22T12:55:33.730Z,7.72
2022-12-22T12:58:05.991Z,5.63
2022-12-22T13:00:56.951Z,10.40
2022-12-22T13:06:55.936Z,9.57
2022-12-22T13:09:49.973Z,5.50
2022-12-22T13:12:37.006Z,6.10
2022-12-22T13:15:32.497Z,4.78
2022-12-22T13:18:04.008Z,4.63
2022-12-22T13:20:37.345Z,5.25
2022-12-22T13:23:15.242Z,3.45
2022-12-22T13:25:53.164Z,3.45
2022-12-22T13:28:26.790Z,5.47
2022-12-22T13:31:02.924Z,5.05
2022-12-22T13:33:40.015Z,6.60
2022-12-22T13:36:19.297Z,4.13
2022-12-22T13:39:03.091Z,7.13
2022-12-22T13:41:35.322Z,4.43
2022-12-22T13:44:09.976Z,4.18
2022-12-22T13:46:41.594Z,4.80
2022-12-22T13:49:30.238Z,7.25
2022-12-22T13:52:06.860Z,4.57
2022-12-22T13:54:41.253Z,6.13
2022-12-22T13:57:18.915Z,5.00
2022-12-22T13:59:54.906Z,1.30
2022-12-22T14:02:25.748Z,1.70
2022-12-22T14:05:11.537Z,2.00
2022-12-22T14:07:41.982Z,1.52
2022-12-22T14:10:16.707Z,2.83
2022-12-22T14:12:49.993Z,3.50
2022-12-22T14:15:22.709Z,3.42
2022-12-22T14:17:53.596Z,3.22
2022-12-22T14:20:29.247Z,4.88
2022-12-22T14:23:04.603Z,4.82
2022-12-22T14:25:39.976Z,3.15
2022-12-22T14:28:16.415Z,5.88
2022-12-22T14:30:50.369Z,1.75
2022-12-22T14:33:30.515Z,2.35
2022-12-22T14:36:18.445Z,3.70
2022-12-22T14:38:50.600Z,3.45
2022-12-22T14:41:46.898Z,3.20
2022-12-22T14:44:19.544Z,3.83
2022-12-22T14:47:04.863Z,4.78
2022-12-22T14:49:36.332Z,3.78
2022-12-22T14:52:10.856Z,2.70
2022-12-22T14:54:42.577Z,2.75
2022-12-22T14:57:20.196Z,1.33
2022-12-22T15:00:02.593Z,6.53
2022-12-22T15:02:39.699Z,3.50
2022-12-22T15:08:08.534Z,2.70
2022-12-22T15:10:42.841Z,4.88
2022-12-22T15:13:23.597Z,2.65
2022-12-22T15:15:53.995Z,2.65
2022-12-22T15:18:28.635Z,3.72
2022-12-22T15:21:01.863Z,4.50
2022-12-22T15:23:32.133Z,5.70
2022-12-22T15:26:02.357Z,2.25
2022-12-22T15:28:35.784Z,4.82
2022-12-22T15:31:07.636Z,1.73
2022-12-22T15:33:38.012Z,4.22
2022-12-22T15:36:12.427Z,4.22
2022-12-22T15:38:43.669Z,2.38
2022-12-22T15:41:13.883Z,3.22
2022-12-22T15:43:57.244Z,2.47
2022-12-22T15:46:28.414Z,4.68
2022-12-22T15:48:58.739Z,2.40
2022-12-22T15:51:31.178Z,4.88
2022-12-22T15:54:02.331Z,5.55
2022-12-22T15:56:35.865Z,4.10
2022-12-22T15:59:09.108Z,2.63
2022-12-22T16:01:39.483Z,4.43
2022-12-22T16:04:10.897Z,2.00
2022-12-22T16:06:41.618Z,3.75
2022-12-22T16:09:18.172Z,3.03
2022-12-22T16:11:48.559Z,3.72
2022-12-22T16:14:23.375Z,6.80
2022-12-22T16:16:53.951Z,8.20
2022-12-22T16:19:24.343Z,5.30
2022-12-22T16:21:56.584Z,4.28
2022-12-22T16:24:30.738Z,2.85
2022-12-22T16:27:01.613Z,9.02
2022-12-22T16:29:34.682Z,6.05
2022-12-22T16:32:18.591Z,6.22
2022-12-22T16:34:49.071Z,4.72
2022-12-22T16:37:19.380Z,4.43
2022-12-22T16:39:49.834Z,4.05
2022-12-22T16:45:18.967Z,2.80
2022-12-22T16:47:49.416Z,2.80
2022-12-22T16:50:22.909Z,4.90
2022-12-22T16:52:53.698Z,8.43
2022-12-22T16:55:25.219Z,4.65
2022-12-22T16:57:55.633Z,4.03
2022-12-22T17:00:32.196Z,3.70
2022-12-22T17:03:07.286Z,6.93
2022-12-22T17:05:44.510Z,3.97
2022-12-22T17:08:22.494Z,3.97
2022-12-22T17:10:53.780Z,7.43
2022-12-22T17:13:24.975Z,4.28
2022-12-22T17:15:58.064Z,5.45
2022-12-22T17:18:29.568Z,6.90
2022-12-22T17:21:04.915Z,9.50
2022-12-22T17:23:39.010Z,7.38
2022-12-22T17:26:12.119Z,4.97
2022-12-22T17:28:42.935Z,6.47
2022-12-22T17:31:19.913Z,8.00
2022-12-22T17:33:51.436Z,6.60
2022-12-22T17:36:37.312Z,5.20
2022-12-22T17:39:07.989Z,9.43
2022-12-22T17:41:38.335Z,4.15
2022-12-22T17:44:16.258Z,4.95
2022-12-22T17:46:51.331Z,6.78
2022-12-22T17:49:25.518Z,7.07
2022-12-22T17:51:57.133Z,6.32
2022-12-22T17:54:30.477Z,5.95
2022-12-22T17:57:06.462Z,7.32
2022-12-22T17:59:39.894Z,7.05
2022-12-22T18:02:23.052Z,6.45
2022-12-22T18:04:54.338Z,6.80
2022-12-22T18:07:27.354Z,7.97
2022-12-22T18:10:02.610Z,8.07
2022-12-22T18:12:32.862Z,8.40
2022-12-22T18:15:03.172Z,7.57
2022-12-22T18:17:36.344Z,7.15
2022-12-22T18:20:07.771Z,5.55
2022-12-22T18:22:38.074Z,10.30
2022-12-22T18:25:18.637Z,3.63
2022-12-22T18:27:49.388Z,6.28
2022-12-22T18:30:24.977Z,8.00
2022-12-22T18:32:59.311Z,8.45
2022-12-22T18:35:30.969Z,8.52
2022-12-22T18:38:01.767Z,8.02
2022-12-22T18:40:34.599Z,6.13
2022-12-22T18:43:05.663Z,7.90
2022-12-22T18:45:36.269Z,5.57
2022-12-22T18:48:09.626Z,9.75
2022-12-22T18:50:40.418Z,5.53
2022-12-22T18:53:21.372Z,6.85
2022-12-22T18:55:51.717Z,10.63
2022-12-22T18:58:22.154Z,7.13
2022-12-22T19:00:53.534Z,6.75
2022-12-22T19:03:29.410Z,10.02
2022-12-22T19:06:00.478Z,6.07
2022-12-22T19:08:31.555Z,6.50
2022-12-22T19:11:06.517Z,6.57
2022-12-22T19:13:38.640Z,5.90
2022-12-22T19:16:10.242Z,10.05
2022-12-22T19:18:43.505Z,5.15
2022-12-22T19:21:16.018Z,9.20
2022-12-22T19:23:46.861Z,9.63
2022-12-22T19:26:24.381Z,7.35
2022-12-22T19:28:57.129Z,8.48
2022-12-22T19:31:29.653Z,4.88
2022-12-22T19:34:05.918Z,7.53
2022-12-22T19:36:36.429Z,6.05
2022-12-22T19:39:06.957Z,7.93
2022-12-22T19:41:42.835Z,7.60
2022-12-22T19:44:21.085Z,13.75
2022-12-22T19:46:51.984Z,8.35
2022-12-22T19:49:27.496Z,7.65
2022-12-22T19:51:58.842Z,8.32
2022-12-22T19:54:29.125Z,11.85
2022-12-22T19:56:59.494Z,9.25
2022-12-22T19:59:39.142Z,9.57
2022-12-22T20:02:29.368Z,10.65
2022-12-22T20:05:02.915Z,10.90
2022-12-22T20:07:37.070Z,18.10
2022-12-22T20:10:07.798Z,12.32
2022-12-22T20:12:42.419Z,16.23
2022-12-22T20:15:18.692Z,17.15
2022-12-22T20:17:49.459Z,12.95
2022-12-22T20:20:24.303Z,14.73
2022-12-22T20:22:57.801Z,15.80
2022-12-22T20:25:30.210Z,11.10
2022-12-22T20:28:00.595Z,12.73
2022-12-22T20:30:33.789Z,10.13
2022-12-22T20:33:04.073Z,18.48
2022-12-22T20:35:38.227Z,17.70
2022-12-22T20:38:20.735Z,12.55
2022-12-22T20:40:54.093Z,23.10
2022-12-22T20:43:26.675Z,13.80
2022-12-22T20:46:03.397Z,21.65
2022-12-22T20:48:38.186Z,25.02
2022-12-22T20:51:15.649Z,17.83
2022-12-22T20:53:46.280Z,18.13
2022-12-22T20:56:23.829Z,23.67
2022-12-22T20:58:54.693Z,14.77
2022-12-22T21:01:25.223Z,18.83
2022-12-22T21:03:55.760Z,16.35
2022-12-22T21:06:30.608Z,14.35
2022-12-22T21:09:02.840Z,17.13
2022-12-22T21:11:34.568Z,15.88
2022-12-22T21:14:04.893Z,15.05
2022-12-22T21:16:35.603Z,15.82
2022-12-22T21:19:06.659Z,22.20
2022-12-22T21:21:40.983Z,23.25
2022-12-22T21:24:11.446Z,18.08
2022-12-22T21:26:45.421Z,20.95
2022-12-22T21:29:19.343Z,22.35
2022-12-22T21:31:49.621Z,21.55
2022-12-22T21:34:25.141Z,23.10
2022-12-22T21:37:02.728Z,18.42
2022-12-22T21:39:41.829Z,22.50
2022-12-22T21:42:16.494Z,22.75
2022-12-22T21:44:47.592Z,21.30
2022-12-22T21:47:21.245Z,23.33
2022-12-22T21:49:51.959Z,23.92
2022-12-22T21:52:24.792Z,22.77
2022-12-22T21:54:54.998Z,21.73
2022-12-22T21:57:25.861Z,28.95
2022-12-22T21:59:56.153Z,27.17
2022-12-22T22:02:27.649Z,22.17
2022-12-22T22:04:58.933Z,22.08
2022-12-22T22:07:31.809Z,22.55
2022-12-22T22:10:02.119Z,17.48
2022-12-22T22:12:37.289Z,29.38
2022-12-22T22:15:11.872Z,22.63
2022-12-22T22:17:46.167Z,20.25
2022-12-22T22:20:18.910Z,18.80
2022-12-22T22:22:53.347Z,19.23
2022-12-22T22:25:24.324Z,22.70
2022-12-22T22:27:55.025Z,17.63
2022-12-22T22:30:27.581Z,17.52
2022-12-22T22:32:58.705Z,22.67
2022-12-22T22:35:30.243Z,13.63
2022-12-22T22:38:03.143Z,15.05
2022-12-22T22:40:33.384Z,18.92
2022-12-22T22:43:03.662Z,11.75
2022-12-22T22:45:33.984Z,15.23
2022-12-22T22:48:10.468Z,18.23
2022-12-22T22:53:16.037Z,10.88
2022-12-22T22:55:46.298Z,12.25
2022-12-22T22:58:17.630Z,10.85
2022-12-22T23:00:47.955Z,8.98
2022-12-22T23:03:18.324Z,10.88
2022-12-22T23:05:48.725Z,9.93
2022-12-22T23:08:21.553Z,7.45
2022-12-22T23:10:52.174Z,10.25
2022-12-22T23:13:22.470Z,11.00
2022-12-22T23:15:57.159Z,8.45
2022-12-22T23:18:28.090Z,12.02
2022-12-22T23:21:00.982Z,10.05
2022-12-22T23:23:35.157Z,14.88
2022-12-22T23:26:06.098Z,7.28
2022-12-22T23:28:37.029Z,10.38
2022-12-22T23:31:07.942Z,10.98
2022-12-22T23:33:38.357Z,10.93
2022-12-22T23:36:09.478Z,8.52
2022-12-22T23:38:42.413Z,7.28
2022-12-22T23:41:14.892Z,7.13
2022-12-22T23:43:45.099Z,3.97
2022-12-22T23:46:17.745Z,6.22
2022-12-22T23:48:52.621Z,3.65
2022-12-22T23:51:23.695Z,6.10
2022-12-22T23:53:56.628Z,4.45
2022-12-22T23:56:27.216Z,3.45
2022-12-22T23:58:57.572Z,3.28
